createdAt,value
2023-04-07T00:00:53.506Z,15.10
2023-04-07T00:05:56.305Z,15.50
2023-04-07T00:10:59.320Z,14.67
2023-04-07T00:16:03.422Z,14.85
2023-04-07T00:21:06.440Z,14.38
2023-04-07T00:26:09.433Z,13.37
2023-04-07T00:31:13.893Z,12.63
2023-04-07T00:36:16.982Z,13.10
2023-04-07T00:41:19.958Z,11.38
2023-04-07T00:46:24.577Z,10.05
2023-04-07T00:51:27.970Z,11.02
2023-04-07T00:56:31.044Z,13.20
2023-04-07T01:01:42.207Z,13.13
2023-04-07T01:06:49.741Z,14.00
2023-04-07T01:12:01.345Z,14.77
2023-04-07T01:17:08.281Z,17.75
2023-04-07T01:22:14.394Z,19.20
2023-04-07T01:27:23.183Z,18.10
2023-04-07T01:32:28.084Z,18.35
2023-04-07T01:37:31.215Z,19.45
2023-04-07T01:42:34.440Z,17.08
2023-04-07T01:47:39.292Z,16.38
2023-04-07T01:52:42.526Z,16.65
2023-04-07T01:57:45.583Z,16.15
2023-04-07T02:03:00.898Z,14.20
2023-04-07T02:08:06.266Z,13.60
2023-04-07T02:13:14.751Z,14.53
2023-04-07T02:18:20.036Z,14.53
2023-04-07T02:23:22.865Z,12.88
2023-04-07T02:28:25.653Z,12.38
2023-04-07T02:33:29.797Z,17.50
2023-04-07T02:38:33.073Z,18.43
2023-04-07T02:43:35.817Z,16.50
2023-04-07T02:48:39.935Z,14.82
2023-04-07T02:53:42.709Z,13.90
2023-04-07T02:58:46.641Z,14.73
2023-04-07T03:03:51.223Z,14.38
2023-04-07T03:08:59.991Z,14.18
2023-04-07T03:14:02.936Z,13.47
2023-04-07T03:19:08.974Z,13.50
2023-04-07T03:24:16.304Z,12.70
2023-04-07T03:29:19.284Z,11.53
2023-04-07T03:34:23.642Z,12.07
2023-04-07T03:39:26.791Z,10.32
2023-04-07T03:44:34.154Z,10.73
2023-04-07T03:49:38.570Z,9.23
2023-04-07T03:54:42.710Z,9.93
2023-04-07T03:59:46.152Z,11.13
2023-04-07T04:04:50.559Z,12.07
2023-04-07T04:09:54.464Z,11.10
2023-04-07T04:14:57.624Z,11.20
2023-04-07T04:20:01.957Z,10.25
2023-04-07T04:25:16.287Z,9.23
2023-04-07T04:30:23.509Z,8.88
2023-04-07T04:35:41.227Z,9.40
2023-04-07T04:40:47.806Z,11.17
2023-04-07T04:45:53.812Z,10.73
2023-04-07T04:51:01.819Z,11.03
2023-04-07T04:56:07.165Z,10.53
2023-04-07T05:01:15.677Z,9.05
2023-04-07T05:06:28.445Z,9.60
2023-04-07T05:11:34.752Z,8.70
2023-04-07T05:16:37.765Z,9.52
2023-04-07T05:21:44.086Z,8.25
2023-04-07T05:26:47.978Z,7.77
2023-04-07T05:31:50.865Z,8.13
2023-04-07T05:36:57.594Z,7.83
2023-04-07T05:42:02.261Z,8.52
2023-04-07T05:47:08.878Z,8.45
2023-04-07T05:52:14.430Z,9.18
2023-04-07T05:57:20.604Z,9.50
2023-04-07T06:02:25.198Z,8.93
2023-04-07T06:07:30.416Z,8.63
2023-04-07T06:12:33.385Z,8.13
2023-04-07T06:17:36.585Z,7.23
2023-04-07T06:22:40.919Z,7.38
2023-04-07T06:27:43.833Z,7.35
2023-04-07T06:32:47.168Z,7.63
2023-04-07T06:37:51.394Z,6.97
2023-04-07T06:42:54.794Z,6.90
2023-04-07T06:48:07.728Z,6.75
2023-04-07T06:53:12.712Z,6.57
2023-04-07T06:58:15.692Z,7.43
2023-04-07T07:03:18.731Z,6.70
2023-04-07T07:08:23.498Z,7.82
2023-04-07T07:13:28.255Z,7.03
2023-04-07T07:18:31.996Z,7.35
2023-04-07T07:23:36.258Z,6.78
2023-04-07T07:28:39.410Z,6.28
2023-04-07T07:33:44.316Z,7.00
2023-04-07T07:38:51.221Z,6.18
2023-04-07T07:43:54.099Z,5.88
2023-04-07T07:48:57.204Z,6.38
2023-04-07T07:54:02.125Z,6.15
2023-04-07T07:59:06.375Z,6.63
2023-04-07T08:04:09.310Z,5.60
2023-04-07T08:09:13.516Z,5.85
2023-04-07T08:14:16.525Z,6.80
2023-04-07T08:19:19.362Z,5.50
2023-04-07T08:24:23.566Z,4.90
2023-04-07T08:29:26.418Z,5.75
2023-04-07T08:34:29.264Z,6.65
2023-04-07T08:39:34.028Z,5.47
2023-04-07T08:44:38.244Z,7.15
2023-04-07T08:49:42.348Z,6.27
2023-04-07T08:54:46.592Z,6.70
2023-04-07T08:59:51.423Z,6.88
2023-04-07T09:04:54.294Z,6.15
2023-04-07T09:09:58.450Z,5.65
2023-04-07T09:15:01.742Z,5.10
2023-04-07T09:20:05.701Z,5.45
2023-04-07T09:25:17.472Z,6.03
2023-04-07T09:30:20.779Z,6.45
2023-04-07T09:35:24.673Z,7.80
2023-04-07T09:40:29.008Z,8.85
2023-04-07T09:45:36.163Z,8.82
2023-04-07T09:50:45.762Z,9.10
2023-04-07T09:55:51.225Z,8.27
2023-04-07T10:00:54.360Z,8.60
2023-04-07T10:05:57.227Z,10.60
2023-04-07T10:11:02.936Z,9.23
2023-04-07T10:16:08.501Z,8.25
2023-04-07T10:21:15.196Z,8.18
2023-04-07T10:26:21.443Z,9.68
2023-04-07T10:31:24.412Z,9.20
2023-04-07T10:36:28.939Z,8.00
2023-04-07T10:41:37.465Z,8.82
2023-04-07T10:47:05.730Z,8.60
2023-04-07T10:52:24.371Z,9.03
2023-04-07T10:57:29.142Z,12.10
2023-04-07T11:02:36.025Z,11.15
2023-04-07T11:08:02.574Z,12.60
2023-04-07T11:13:08.458Z,13.52
2023-04-07T11:18:17.434Z,15.27
2023-04-07T11:23:21.529Z,14.90
2023-04-07T11:28:25.865Z,16.67
2023-04-07T11:33:29.660Z,15.93
2023-04-07T11:38:37.890Z,16.58
2023-04-07T11:43:42.871Z,16.63
2023-04-07T11:48:47.257Z,14.20
2023-04-07T11:53:56.791Z,15.40
2023-04-07T11:59:02.675Z,13.35
2023-04-07T12:04:05.921Z,14.48
2023-04-07T12:09:09.779Z,16.87
2023-04-07T12:14:14.019Z,15.13
2023-04-07T12:19:17.068Z,14.15
2023-04-07T12:24:19.912Z,13.23
2023-04-07T12:29:24.250Z,13.50
2023-04-07T12:34:27.250Z,14.65
2023-04-07T12:39:30.108Z,13.95
2023-04-07T12:44:34.346Z,14.32
2023-04-07T12:49:37.285Z,13.87
2023-04-07T12:54:40.248Z,14.73
2023-04-07T12:59:44.842Z,15.30
2023-04-07T13:04:47.821Z,13.17
2023-04-07T13:09:50.815Z,15.00
2023-04-07T13:15:00.203Z,15.27
2023-04-07T13:20:04.857Z,16.23
2023-04-07T13:25:08.688Z,17.63
2023-04-07T13:30:14.281Z,18.75
2023-04-07T13:35:17.829Z,14.93
2023-04-07T13:40:20.977Z,14.00
2023-04-07T13:45:25.231Z,14.23
2023-04-07T13:50:29.043Z,13.00
2023-04-07T13:55:32.034Z,12.20
2023-04-07T14:00:38.387Z,12.47
2023-04-07T14:05:41.349Z,11.43
2023-04-07T14:10:44.322Z,13.05
2023-04-07T14:15:49.457Z,15.48
2023-04-07T14:20:52.428Z,16.17
2023-04-07T14:25:55.761Z,15.40
2023-04-07T14:31:00.128Z,13.90
2023-04-07T14:36:03.111Z,13.13
2023-04-07T14:41:10.131Z,13.63
2023-04-07T14:46:15.467Z,13.85
2023-04-07T14:51:18.442Z,14.73
2023-04-07T14:56:22.629Z,15.60
2023-04-07T15:01:27.153Z,17.63
2023-04-07T15:06:30.132Z,20.07
2023-04-07T15:11:33.836Z,17.50
2023-04-07T15:16:38.244Z,16.33
2023-04-07T15:21:41.381Z,18.23
2023-04-07T15:26:44.287Z,17.40
2023-04-07T15:31:48.656Z,19.10
2023-04-07T15:36:51.627Z,17.60
2023-04-07T15:41:54.464Z,18.30
2023-04-07T15:46:58.759Z,17.10
2023-04-07T15:52:02.143Z,17.63
2023-04-07T15:57:05.284Z,18.23
2023-04-07T16:02:10.402Z,16.80
2023-04-07T16:07:14.729Z,15.55
2023-04-07T16:12:18.469Z,15.33
2023-04-07T16:17:22.665Z,13.68
2023-04-07T16:22:26.022Z,13.10
2023-04-07T16:27:28.940Z,12.05
2023-04-07T16:32:33.412Z,12.32
2023-04-07T16:37:36.246Z,12.27
2023-04-07T16:42:39.169Z,12.98
2023-04-07T16:47:44.628Z,12.88
2023-04-07T16:52:47.976Z,13.17
2023-04-07T16:57:51.574Z,14.38
2023-04-07T17:02:56.132Z,14.00
2023-04-07T17:07:59.100Z,13.73
2023-04-07T17:13:01.933Z,12.93
2023-04-07T17:18:06.284Z,14.70
2023-04-07T17:23:10.374Z,15.55
2023-04-07T17:28:13.606Z,14.73
2023-04-07T17:33:17.867Z,15.30
2023-04-07T17:38:20.903Z,15.40
2023-04-07T17:43:23.790Z,16.67
2023-04-07T17:48:28.138Z,15.93
2023-04-07T17:53:31.252Z,15.23
2023-04-07T17:58:34.336Z,15.07
2023-04-07T18:03:38.983Z,16.77
2023-04-07T18:08:41.954Z,16.90
2023-04-07T18:13:44.813Z,16.63
2023-04-07T18:18:49.374Z,16.73
2023-04-07T18:23:52.229Z,17.80
2023-04-07T18:28:55.136Z,18.23
2023-04-07T18:33:59.281Z,17.67
2023-04-07T18:39:02.117Z,17.88
2023-04-07T18:44:05.016Z,18.17
2023-04-07T18:49:10.233Z,17.90
2023-04-07T18:54:13.343Z,19.08
2023-04-07T18:59:16.202Z,21.43
2023-04-07T19:04:20.914Z,23.23
2023-04-07T19:09:23.719Z,23.67
2023-04-07T19:14:26.496Z,23.47
2023-04-07T19:19:31.494Z,24.15
2023-04-07T19:24:34.843Z,24.67
2023-04-07T19:29:37.635Z,27.08
2023-04-07T19:34:41.860Z,24.80
2023-04-07T19:39:52.210Z,23.27
2023-04-07T19:45:04.853Z,22.73
2023-04-07T19:50:11.287Z,22.77
2023-04-07T19:55:14.566Z,24.50
2023-04-07T20:00:18.701Z,25.70
2023-04-07T20:05:26.223Z,23.52
2023-04-07T20:10:29.022Z,22.73
2023-04-07T20:15:32.003Z,22.33
2023-04-07T20:20:37.754Z,22.60
2023-04-07T20:25:40.777Z,23.13
2023-04-07T20:30:43.592Z,23.23
2023-04-07T20:35:47.871Z,22.13
2023-04-07T20:40:50.710Z,23.05
2023-04-07T20:45:53.599Z,21.50
2023-04-07T20:50:57.770Z,20.88
2023-04-07T20:56:00.608Z,20.33
2023-04-07T21:01:03.415Z,18.03
2023-04-07T21:06:07.620Z,20.98
2023-04-07T21:11:10.483Z,20.10
2023-04-07T21:16:13.452Z,20.92
2023-04-07T21:21:17.593Z,19.63
2023-04-07T21:26:20.840Z,19.33
2023-04-07T21:31:24.559Z,21.70
2023-04-07T21:36:28.832Z,21.40
2023-04-07T21:41:31.675Z,19.80
2023-04-07T21:46:34.766Z,19.88
2023-04-07T21:51:38.976Z,17.73
2023-04-07T21:56:42.641Z,18.77
2023-04-07T22:01:46.946Z,18.87
2023-04-07T22:06:51.542Z,16.63
2023-04-07T22:11:54.404Z,16.92
2023-04-07T22:16:57.221Z,18.17
2023-04-07T22:22:01.257Z,19.27
2023-04-07T22:27:04.441Z,21.42
2023-04-07T22:32:07.367Z,22.45
2023-04-07T22:37:11.522Z,19.10
2023-04-07T22:42:14.527Z,18.60
2023-04-07T22:47:17.361Z,16.87
2023-04-07T22:52:21.400Z,17.43
2023-04-07T22:57:24.136Z,18.35
2023-04-07T23:02:26.999Z,23.33
2023-04-07T23:07:31.431Z,26.60
2023-04-07T23:12:34.258Z,20.63
2023-04-07T23:17:37.074Z,21.88
2023-04-07T23:22:41.286Z,21.75
2023-04-07T23:27:44.127Z,18.58
2023-04-07T23:32:47.260Z,17.05
2023-04-07T23:37:51.448Z,16.27
2023-04-07T23:42:54.228Z,15.60
2023-04-07T23:47:57.036Z,14.35
2023-04-07T23:53:01.753Z,15.30
2023-04-07T23:58:04.553Z,14.38
